Time;durP1;ratioP1;P1;durP2;ratioP2;P2;SDS_P1;SDS_P2;PMS_P1;PMS_P2;Temp;Humidity;BMP_temperature;BMP_pressure;BME280_temperature;BME280_humidity;BME280_pressure;Samples;Min_cycle;Max_cycle;Signal;HPM_P1;HPM_P2
2022/01/19 00:01:19;;;;;;;6.88;2.50;;;-3.90;94.60;;;;;;6243728;23;20023;-79
2022/01/19 00:03:45;;;;;;;5.57;2.15;;;-3.90;94.50;;;;;;6243564;23;20003;-81
2022/01/19 00:06:11;;;;;;;6.72;2.40;;;-3.90;94.80;;;;;;6217244;23;20000;-81
2022/01/19 00:08:49;;;;;;;5.65;2.50;;;-3.90;94.90;;;;;;6215449;23;20000;-80
2022/01/19 00:11:15;;;;;;;3.90;2.40;;;-4.00;95.40;;;;;;6213231;23;20086;-79
2022/01/19 00:13:40;;;;;;;4.93;2.35;;;-3.80;95.40;;;;;;6216150;23;20028;-86
2022/01/19 00:16:07;;;;;;;6.53;2.70;;;-3.90;95.00;;;;;;6218597;23;20483;-81
2022/01/19 00:18:33;;;;;;;3.78;2.25;;;-4.00;94.70;;;;;;6216239;23;20018;-80
2022/01/19 00:20:58;;;;;;;9.27;2.55;;;-3.90;95.20;;;;;;6220059;23;20589;-85
2022/01/19 00:23:25;;;;;;;7.10;2.70;;;-4.00;94.80;;;;;;6216656;23;20038;-79
2022/01/19 00:25:55;;;;;;;6.00;2.70;;;-4.00;94.50;;;;;;6219019;23;20419;-79
2022/01/19 00:28:25;;;;;;;5.53;2.58;;;-4.00;93.60;;;;;;6217586;23;20054;-85
2022/01/19 00:30:51;;;;;;;4.70;2.45;;;-3.90;92.80;;;;;;6217444;23;20011;-78
2022/01/19 00:33:19;;;;;;;7.53;2.65;;;-3.90;91.90;;;;;;6243641;23;20315;-79
2022/01/19 00:35:52;;;;;;;7.53;3.25;;;-3.90;90.90;;;;;;6215635;23;20035;-86
2022/01/19 00:38:19;;;;;;;3.08;1.88;;;-3.90;85.00;;;;;;6240958;23;20008;-86
2022/01/19 00:40:45;;;;;;;3.35;2.03;;;-3.90;87.00;;;;;;6215413;23;20000;-79
2022/01/19 00:43:15;;;;;;;3.88;1.90;;;-3.90;84.80;;;;;;6214890;23;20415;-78
2022/01/19 00:45:41;;;;;;;3.33;2.17;;;-3.90;84.30;;;;;;6242779;23;20000;-88
2022/01/19 00:48:07;;;;;;;3.67;1.80;;;-3.90;84.10;;;;;;6242468;23;20118;-80
2022/01/19 00:50:33;;;;;;;3.42;1.92;;;-4.00;82.30;;;;;;6241993;23;20000;-79
2022/01/19 00:52:58;;;;;;;3.58;2.20;;;-4.00;81.50;;;;;;6217729;23;20379;-84
2022/01/19 00:55:27;;;;;;;5.45;2.20;;;-4.10;81.00;;;;;;6215805;23;20470;-80
2022/01/19 00:57:53;;;;;;;4.63;2.15;;;-4.10;82.70;;;;;;6215187;23;20073;-79
2022/01/19 01:00:21;;;;;;;4.85;2.35;;;-4.10;81.80;;;;;;6243796;23;20075;-83
2022/01/19 01:02:47;;;;;;;3.85;2.00;;;-4.10;81.30;;;;;;6242082;23;20019;-79
2022/01/19 01:05:13;;;;;;;2.85;1.80;;;-4.10;81.90;;;;;;6215539;23;20000;-81
2022/01/19 01:07:40;;;;;;;3.45;1.98;;;-4.00;82.90;;;;;;6215684;23;20079;-84
2022/01/19 01:10:13;;;;;;;6.35;2.00;;;-4.00;82.60;;;;;;6214831;23;20315;-79
2022/01/19 01:13:16;;;;;;;3.30;1.80;;;-4.00;83.50;;;;;;6241864;23;20058;-79
2022/01/19 01:20:33;;;;;;;8.80;2.53;;;-4.10;84.00;;;;;;6242914;23;20110;-80
2022/01/19 01:22:59;;;;;;;4.38;2.22;;;-4.10;83.70;;;;;;6242796;23;20000;-84
2022/01/19 01:25:24;;;;;;;4.88;2.50;;;-4.10;84.20;;;;;;6242684;23;20453;-80
2022/01/19 01:27:50;;;;;;;3.38;2.10;;;-4.10;84.70;;;;;;6215806;23;20010;-80
2022/01/19 01:30:16;;;;;;;4.45;2.10;;;-4.10;85.10;;;;;;6215926;23;20103;-83
2022/01/19 01:32:42;;;;;;;3.72;2.13;;;-4.10;85.70;;;;;;6215517;23;20008;-81
2022/01/19 01:35:08;;;;;;;4.55;2.15;;;-4.00;85.90;;;;;;6215490;23;20012;-81
2022/01/19 01:37:35;;;;;;;3.35;1.90;;;-4.00;86.40;;;;;;6243374;23;20373;-82
2022/01/19 01:40:13;;;;;;;3.78;1.90;;;-4.00;86.90;;;;;;6215705;23;20090;-80
2022/01/19 01:42:40;;;;;;;4.43;2.20;;;-4.00;87.20;;;;;;6215506;23;20000;-80
2022/01/19 01:45:11;;;;;;;5.35;2.00;;;-4.00;87.70;;;;;;6214967;23;20007;-80
2022/01/19 01:47:43;;;;;;;4.03;2.20;;;-4.00;88.20;;;;;;6215368;23;20043;-86
2022/01/19 01:55:45;;;;;;;3.65;2.08;;;-4.00;90.00;;;;;;6242654;23;20012;-82
2022/01/19 01:58:11;;;;;;;5.15;2.58;;;-4.00;90.40;;;;;;6214833;23;20048;-81
2022/01/19 02:00:37;;;;;;;5.93;2.70;;;-4.00;90.60;;;;;;6244453;23;20004;-84
2022/01/19 02:03:28;;;;;;;4.70;2.58;;;-4.00;90.80;;;;;;6242176;23;20004;-83
2022/01/19 02:08:38;;;;;;;3.35;2.20;;;-4.00;90.50;;;;;;6245148;23;19900;-78
2022/01/19 02:16:40;;;;;;;4.13;2.55;;;-4.00;91.40;;;;;;6243613;23;20331;-79
2022/01/19 02:22:01;;;;;;;6.68;2.63;;;-4.10;92.20;;;;;;6242279;23;20015;-79
2022/01/19 02:24:31;;;;;;;4.78;2.63;;;-4.10;92.60;;;;;;6242771;23;20176;-80
2022/01/19 02:30:13;;;;;;;5.38;2.50;;;-4.10;92.90;;;;;;6243640;23;20217;-82
2022/01/19 02:40:37;;;;;;;5.00;2.80;;;-4.10;91.30;;;;;;6242604;23;20307;-84
2022/01/19 02:51:15;;;;;;;5.40;2.60;;;-4.10;89.10;;;;;;6243236;23;20007;-85
2022/01/19 02:53:47;;;;;;;5.13;2.53;;;-4.10;89.20;;;;;;6242943;23;20004;-85
2022/01/19 02:56:22;;;;;;;6.03;2.80;;;-4.10;87.90;;;;;;6215440;23;20016;-80
2022/01/19 02:58:56;;;;;;;6.93;3.00;;;-4.10;87.70;;;;;;6216377;23;20012;-79
2022/01/19 03:09:24;;;;;;;4.53;2.38;;;-4.20;89.00;;;;;;6244544;23;19996;-80
2022/01/19 03:12:07;;;;;;;5.28;2.50;;;-4.20;88.80;;;;;;6216011;23;20370;-82
2022/01/19 03:14:32;;;;;;;4.85;2.55;;;-4.20;87.70;;;;;;6216043;23;20038;-79
2022/01/19 03:17:40;;;;;;;5.80;3.00;;;-4.30;88.20;;;;;;6215518;23;20435;-82
2022/01/19 03:20:07;;;;;;;6.40;2.83;;;-4.30;87.80;;;;;;6214898;23;20019;-80
2022/01/19 03:22:45;;;;;;;6.47;2.75;;;-4.30;87.60;;;;;;6216189;23;20003;-88
2022/01/19 03:25:14;;;;;;;5.85;2.97;;;-4.30;87.10;;;;;;6214295;23;20007;-87
2022/01/19 03:27:40;;;;;;;7.80;2.90;;;-4.30;87.10;;;;;;6216035;23;20008;-79
2022/01/19 03:30:19;;;;;;;6.82;3.00;;;-4.40;87.40;;;;;;6241815;23;20366;-82
2022/01/19 03:32:56;;;;;;;5.32;2.72;;;-4.40;85.90;;;;;;6241699;23;20339;-83
2022/01/19 03:35:33;;;;;;;6.80;2.90;;;-4.50;85.60;;;;;;6213085;23;20819;-80
2022/01/19 03:37:59;;;;;;;5.07;2.92;;;-4.50;85.30;;;;;;6209178;23;20020;-80
2022/01/19 03:40:25;;;;;;;5.13;2.60;;;-4.50;84.80;;;;;;6216232;23;20079;-81
2022/01/19 03:42:51;;;;;;;5.80;2.80;;;-4.70;84.30;;;;;;6216361;23;20004;-80
2022/01/19 03:45:17;;;;;;;4.45;2.38;;;-4.70;84.70;;;;;;6215328;23;20000;-80
2022/01/19 03:47:48;;;;;;;4.60;2.53;;;-4.70;86.00;;;;;;6216935;23;20026;-80
2022/01/19 03:50:14;;;;;;;6.22;2.80;;;-4.70;85.90;;;;;;6215507;23;20135;-80
2022/01/19 03:52:40;;;;;;;5.40;3.00;;;-4.80;85.30;;;;;;6243955;23;20023;-81
2022/01/19 03:55:11;;;;;;;6.88;2.83;;;-4.80;85.90;;;;;;6216653;23;20379;-88
2022/01/19 03:57:36;;;;;;;;;;;-4.80;86.40;;;;;;6244395;23;20043;-79
2022/01/19 04:00:04;;;;;;;3.80;2.42;;;-4.90;84.70;;;;;;6243232;23;19899;-79
2022/01/19 04:02:40;;;;;;;4.50;2.72;;;-4.90;86.50;;;;;;6221603;23;20034;-92
2022/01/19 04:05:15;;;;;;;6.07;2.80;;;-4.80;86.50;;;;;;6216415;23;20316;-90
2022/01/19 04:07:46;;;;;;;6.20;2.90;;;-4.80;86.20;;;;;;6215042;23;20004;-79
2022/01/19 04:10:16;;;;;;;5.70;2.70;;;-4.90;86.60;;;;;;6215594;23;20004;-80
2022/01/19 04:12:47;;;;;;;3.95;2.58;;;-4.90;86.00;;;;;;6240311;23;20000;-80
2022/01/19 04:15:20;;;;;;;5.07;2.65;;;-4.90;86.10;;;;;;6214784;23;20123;-80
2022/01/19 04:17:54;;;;;;;4.47;2.78;;;-5.00;86.30;;;;;;6239598;23;20103;-80
2022/01/19 04:20:25;;;;;;;6.05;2.67;;;-5.00;86.60;;;;;;6230220;23;20015;-85
2022/01/19 04:22:50;;;;;;;6.20;2.60;;;-5.00;86.80;;;;;;6242845;23;20028;-81
2022/01/19 04:25:19;;;;;;;5.18;2.60;;;-5.00;87.00;;;;;;6214397;23;20004;-82
2022/01/19 04:27:48;;;;;;;3.47;2.17;;;-5.00;87.50;;;;;;6241364;23;20004;-82
2022/01/19 04:30:17;;;;;;;5.80;2.53;;;-5.00;86.70;;;;;;6214204;23;20035;-80
2022/01/19 04:33:04;;;;;;;3.60;2.10;;;-5.00;87.10;;;;;;6241923;23;20012;-79
2022/01/19 04:35:33;;;;;;;3.38;2.17;;;-5.10;87.20;;;;;;6215543;23;20027;-80
2022/01/19 05:05:59;;;;;;;;;;;;;;;;;;;;;
2022/01/19 05:08:41;;;;;;;5.22;2.35;;;-5.20;88.40;;;;;;6233006;23;20028;-80
2022/01/19 05:13:56;;;;;;;4.75;2.20;;;-3.60;89.40;;;;;;6242948;23;20011;-87
2022/01/19 05:16:23;;;;;;;4.13;2.17;;;-5.20;88.30;;;;;;6215946;23;20004;-81
2022/01/19 05:19:17;;;;;;;5.53;2.42;;;-5.20;88.10;;;;;;6217926;23;20016;-82
2022/01/19 05:21:43;;;;;;;4.97;2.40;;;-5.30;87.70;;;;;;6201933;23;19997;-87
2022/01/19 05:24:33;;;;;;;5.20;2.53;;;-5.40;88.40;;;;;;6215368;23;20095;-82
2022/01/19 05:26:58;;;;;;;5.78;2.30;;;-5.60;89.60;;;;;;6215024;23;20004;-84
2022/01/19 05:29:27;;;;;;;6.00;2.78;;;-5.60;89.30;;;;;;6215158;23;20026;-81
2022/01/19 05:32:13;;;;;;;6.38;2.85;;;-5.70;90.00;;;;;;6216524;23;20355;-83
2022/01/19 05:34:39;;;;;;;5.38;2.63;;;-5.80;90.20;;;;;;6243276;23;20000;-80
2022/01/19 05:37:08;;;;;;;5.45;2.58;;;-5.90;90.50;;;;;;6242857;23;20003;-80
2022/01/19 05:39:36;;;;;;;4.93;2.60;;;-5.90;90.60;;;;;;6243507;23;20098;-82
2022/01/19 05:42:05;;;;;;;4.70;2.70;;;-5.90;90.60;;;;;;6217366;23;20000;-79
2022/01/19 05:47:22;;;;;;;4.90;2.67;;;-6.00;91.10;;;;;;6238635;23;20011;-80
2022/01/19 05:49:48;;;;;;;4.35;2.67;;;-6.00;91.20;;;;;;6216573;23;20000;-80
2022/01/19 05:52:32;;;;;;;8.82;3.10;;;-6.10;91.30;;;;;;6216023;23;20010;-86
2022/01/19 05:55:07;;;;;;;8.65;3.05;;;-6.10;92.30;;;;;;6216232;23;20490;-81
2022/01/19 05:57:37;;;;;;;5.90;2.70;;;-6.10;91.90;;;;;;6242786;23;20312;-80
2022/01/19 06:00:06;;;;;;;6.25;3.10;;;-6.10;91.90;;;;;;6216979;23;20004;-87
2022/01/19 06:02:31;;;;;;;4.60;2.40;;;-6.10;92.10;;;;;;6216314;23;20427;-82
2022/01/19 06:05:00;;;;;;;5.18;2.90;;;-6.10;92.00;;;;;;6215789;23;20010;-81
2022/01/19 06:07:29;;;;;;;7.20;2.95;;;-6.10;92.10;;;;;;6216130;23;20415;-86
2022/01/19 06:10:05;;;;;;;5.85;2.97;;;-6.10;92.10;;;;;;6216471;23;19996;-80
2022/01/19 06:12:34;;;;;;;6.18;2.45;;;-6.00;92.20;;;;;;6216302;23;20051;-81
2022/01/19 06:15:00;;;;;;;7.53;2.53;;;-6.00;92.20;;;;;;6215420;23;20000;-83
2022/01/19 06:17:26;;;;;;;5.75;2.60;;;-6.00;92.10;;;;;;6215508;23;20075;-82
2022/01/19 06:19:52;;;;;;;7.28;2.92;;;-6.00;92.20;;;;;;6217058;23;20036;-82
2022/01/19 06:22:21;;;;;;;7.57;3.25;;;-6.00;92.40;;;;;;6242534;23;19996;-81
2022/01/19 06:24:50;;;;;;;6.47;3.00;;;-6.00;92.30;;;;;;6215141;23;20000;-84
2022/01/19 06:27:16;;;;;;;6.25;2.97;;;-5.90;92.40;;;;;;6215249;23;20010;-81
2022/01/19 06:29:45;;;;;;;5.97;3.15;;;-5.90;92.30;;;;;;6215693;23;20004;-78
2022/01/19 06:32:11;;;;;;;5.85;2.75;;;-5.90;92.40;;;;;;6214828;23;20082;-80
2022/01/19 06:34:37;;;;;;;9.88;3.50;;;-3.90;92.90;;;;;;6216484;23;20043;-81
2022/01/19 06:37:06;;;;;;;5.70;3.20;;;-5.80;92.40;;;;;;6215556;23;20007;-81
2022/01/19 06:39:32;;;;;;;7.68;3.50;;;-5.80;92.40;;;;;;6215614;23;20024;-82
2022/01/19 06:41:57;;;;;;;5.20;2.60;;;-5.70;92.30;;;;;;6216565;23;20335;-81
2022/01/19 06:44:23;;;;;;;8.32;2.80;;;-5.70;92.10;;;;;;6213244;23;20438;-81
2022/01/19 06:46:52;;;;;;;7.47;3.00;;;-5.60;92.10;;;;;;6215285;23;20005;-87
2022/01/19 06:49:18;;;;;;;6.70;2.80;;;-5.60;92.00;;;;;;6242968;23;20058;-80
2022/01/19 06:51:44;;;;;;;7.45;2.67;;;-5.50;91.90;;;;;;6215324;23;20627;-82
2022/01/19 06:54:09;;;;;;;5.68;2.75;;;-5.40;92.40;;;;;;6214963;23;20015;-82
2022/01/19 06:56:37;;;;;;;4.65;2.33;;;-5.20;95.10;;;;;;6215837;23;20054;-80
2022/01/19 06:59:04;;;;;;;6.45;2.92;;;-4.80;97.40;;;;;;6214570;23;20103;-84
2022/01/19 07:01:32;;;;;;;283.45;122.07;;;-4.20;97.90;;;;;;6214667;23;20016;-83
2022/01/19 07:04:01;;;;;;;182.32;74.60;;;-3.70;98.30;;;;;;6216252;23;20007;-85
2022/01/19 07:10:24;;;;;;;20.55;10.20;;;-2.40;92.50;;;;;;6125540;23;20006;-87
2022/01/19 07:12:50;;;;;;;14.93;5.45;;;-1.80;78.20;;;;;;6217007;23;20362;-83
2022/01/19 07:15:16;;;;;;;7.43;3.78;;;-1.40;90.10;;;;;;6215479;23;20008;-80
2022/01/19 07:17:42;;;;;;;7.63;3.42;;;-1.10;86.70;;;;;;6214186;23;20004;-81
2022/01/19 07:20:09;;;;;;;7.30;2.92;;;-0.70;87.50;;;;;;6216204;23;20047;-86
2022/01/19 07:22:35;;;;;;;6.10;3.20;;;-0.40;82.60;;;;;;6213814;23;20028;-80
2022/01/19 07:25:01;;;;;;;5.97;3.00;;;-0.20;80.40;;;;;;6215193;23;20011;-78
2022/01/19 07:27:27;;;;;;;7.45;3.80;;;-0.10;79.60;;;;;;6216391;23;20000;-83
2022/01/19 07:29:52;;;;;;;7.00;3.42;;;0.10;78.90;;;;;;6215121;23;20496;-81
2022/01/19 07:32:23;;;;;;;4.75;2.70;;;0.20;76.20;;;;;;6216143;23;20000;-80
2022/01/19 07:34:48;;;;;;;6.22;2.70;;;0.30;75.00;;;;;;6241930;23;20019;-81
2022/01/19 07:37:14;;;;;;;6.32;2.85;;;0.30;73.50;;;;;;6215896;23;20004;-79
2022/01/19 07:39:40;;;;;;;7.35;3.08;;;0.40;74.00;;;;;;6242100;23;20036;-79
2022/01/19 07:42:06;;;;;;;5.07;2.92;;;0.50;73.50;;;;;;6241950;23;20001;-84
2022/01/19 07:44:32;;;;;;;5.80;2.92;;;0.40;71.20;;;;;;6242472;23;20011;-79
2022/01/19 07:46:58;;;;;;;5.05;2.97;;;0.30;72.30;;;;;;6241609;23;20003;-79
2022/01/19 07:49:37;;;;;;;5.95;3.22;;;0.30;72.80;;;;;;6214338;23;20008;-82
2022/01/19 07:52:06;;;;;;;37.13;17.45;;;0.50;71.80;;;;;;6212630;23;20031;-88
2022/01/19 07:54:32;;;;;;;24.08;11.68;;;0.70;72.80;;;;;;6213240;23;20043;-82
2022/01/19 07:56:57;;;;;;;12.60;6.82;;;1.20;72.20;;;;;;6214136;23;20016;-87
2022/01/19 07:59:32;;;;;;;8.20;4.30;;;1.60;71.90;;;;;;6214478;23;20474;-87
2022/01/19 08:02:00;;;;;;;6.40;3.30;;;1.90;67.70;;;;;;6241327;23;20054;-85
2022/01/19 08:04:31;;;;;;;6.50;3.53;;;1.90;67.30;;;;;;6213824;23;20000;-87
2022/01/19 08:06:57;;;;;;;6.35;3.20;;;2.20;68.20;;;;;;6211340;23;20007;-85
2022/01/19 08:09:26;;;;;;;5.88;3.00;;;2.50;67.90;;;;;;6239188;23;20008;-87
2022/01/19 08:11:52;;;;;;;7.28;3.50;;;2.70;66.60;;;;;;6213370;23;20011;-85
2022/01/19 08:14:49;;;;;;;5.18;2.97;;;2.90;65.90;;;;;;6212184;23;20086;-88
2022/01/19 08:17:14;;;;;;;6.97;3.45;;;2.80;60.80;;;;;;6211502;23;20484;-85
2022/01/19 08:19:40;;;;;;;6.25;3.17;;;2.40;63.70;;;;;;6213445;23;20012;-85
2022/01/19 08:22:06;;;;;;;6.80;3.25;;;2.30;64.00;;;;;;6240429;23;19999;-85
2022/01/19 08:24:31;;;;;;;5.60;2.90;;;2.40;64.60;;;;;;6214082;23;20007;-89
2022/01/19 08:26:58;;;;;;;6.15;3.22;;;2.50;64.80;;;;;;6242330;23;20000;-86
2022/01/19 08:29:26;;;;;;;6.50;3.13;;;2.30;62.40;;;;;;6240709;23;20000;-84
2022/01/19 08:31:52;;;;;;;6.13;3.20;;;2.20;63.90;;;;;;6213838;23;20403;-85
2022/01/19 08:34:20;;;;;;;6.20;3.33;;;2.20;64.10;;;;;;6214442;23;20007;-84
2022/01/19 08:36:51;;;;;;;6.43;3.05;;;2.10;62.10;;;;;;6213770;23;20055;-85
2022/01/19 08:39:18;;;;;;;;;;;2.00;64.20;;;;;;6214274;23;20008;-84
2022/01/19 08:41:44;;;;;;;6.18;2.92;;;1.70;59.90;;;;;;6241241;23;20258;-87
2022/01/19 08:44:09;;;;;;;7.10;3.40;;;1.60;63.70;;;;;;6240712;23;19996;-85
2022/01/19 08:46:38;;;;;;;7.90;3.80;;;1.50;63.40;;;;;;6212707;23;20438;-84
2022/01/19 08:49:04;;;;;;;7.18;3.30;;;1.40;63.90;;;;;;6213911;23;20084;-86
2022/01/19 08:51:29;;;;;;;6.93;3.08;;;1.20;63.70;;;;;;6241459;23;20012;-84
2022/01/19 08:53:55;;;;;;;6.25;2.80;;;1.00;64.30;;;;;;6213287;23;20001;-83
2022/01/19 08:56:21;;;;;;;5.53;2.78;;;0.90;63.80;;;;;;6214377;23;20012;-87
2022/01/19 08:58:46;;;;;;;6.35;2.92;;;0.80;63.50;;;;;;6241164;23;20020;-83
2022/01/19 09:01:15;;;;;;;8.25;3.63;;;0.70;63.30;;;;;;6213426;23;20335;-84
2022/01/19 09:03:41;;;;;;;7.32;3.28;;;0.50;63.00;;;;;;6240844;23;20004;-87
2022/01/19 09:06:07;;;;;;;6.07;3.28;;;0.60;64.20;;;;;;6213584;23;20444;-84
2022/01/19 09:08:35;;;;;;;7.60;3.22;;;0.80;65.00;;;;;;6213039;23;20036;-84
2022/01/19 09:11:24;;;;;;;4.63;2.58;;;1.00;64.00;;;;;;6212457;23;20311;-88
2022/01/19 09:13:50;;;;;;;6.57;2.90;;;1.30;63.90;;;;;;6193569;23;20458;-84
2022/01/19 09:16:17;;;;;;;6.45;2.85;;;1.60;64.00;;;;;;6213103;23;20085;-86
2022/01/19 09:18:42;;;;;;;4.68;2.60;;;1.60;62.10;;;;;;6214073;23;20019;-86
2022/01/19 09:21:08;;;;;;;6.30;3.30;;;1.80;62.40;;;;;;6212871;23;19996;-86
2022/01/19 09:23:35;;;;;;;4.13;2.70;;;1.90;63.20;;;;;;6241013;23;19996;-88
2022/01/19 09:26:10;;;;;;;4.13;2.60;;;2.10;63.40;;;;;;6240632;23;20220;-86
2022/01/19 09:28:44;;;;;;;4.20;2.55;;;2.30;63.00;;;;;;6212867;23;20007;-83
2022/01/19 09:31:12;;;;;;;4.05;2.45;;;2.40;62.70;;;;;;6215265;23;20031;-84
2022/01/19 09:33:38;;;;;;;4.82;2.55;;;2.30;62.60;;;;;;6213295;23;20007;-84
2022/01/19 09:36:28;;;;;;;3.85;2.40;;;2.20;62.00;;;;;;6212960;23;20004;-91
2022/01/19 09:38:56;;;;;;;4.90;2.60;;;2.10;62.20;;;;;;6238533;23;20334;-84
2022/01/19 09:41:23;;;;;;;5.13;2.53;;;2.00;63.40;;;;;;6239102;23;20491;-85
2022/01/19 09:43:49;;;;;;;3.80;2.20;;;1.90;62.50;;;;;;6241301;23;20123;-84
2022/01/19 09:46:15;;;;;;;5.68;3.05;;;1.90;63.30;;;;;;6242275;23;20437;-82
2022/01/19 09:48:41;;;;;;;4.75;2.65;;;1.80;62.10;;;;;;6240448;23;20020;-84
2022/01/19 09:51:07;;;;;;;4.75;2.40;;;1.60;62.40;;;;;;6214325;23;20003;-85
2022/01/19 09:53:33;;;;;;;6.20;2.78;;;1.60;62.60;;;;;;6213084;23;20004;-83
2022/01/19 09:55:59;;;;;;;6.68;2.70;;;1.70;62.90;;;;;;6213502;23;20010;-86
2022/01/19 09:58:25;;;;;;;4.72;2.60;;;1.70;62.30;;;;;;6213019;23;20027;-84
2022/01/19 10:00:51;;;;;;;4.65;2.25;;;1.90;63.30;;;;;;6212929;23;20007;-84
2022/01/19 10:03:27;;;;;;;4.57;2.70;;;2.10;62.70;;;;;;6212837;23;20083;-89
2022/01/19 10:06:10;;;;;;;8.65;2.97;;;2.30;63.00;;;;;;6213280;23;19992;-88
2022/01/19 10:08:38;;;;;;;6.43;3.22;;;2.50;62.60;;;;;;6212951;23;20423;-84
2022/01/19 10:17:03;;;;;;;6.18;2.80;;;3.70;61.50;;;;;;6242232;23;20014;-83
2022/01/19 10:19:44;;;;;;;4.28;2.20;;;4.10;57.20;;;;;;6214541;23;20015;-87
2022/01/19 10:22:23;;;;;;;4.68;2.50;;;4.50;57.50;;;;;;6214603;23;20004;-83
2022/01/19 10:24:57;;;;;;;5.22;2.50;;;4.80;58.90;;;;;;6214724;23;20011;-84
2022/01/19 10:27:40;;;;;;;4.63;2.60;;;5.20;57.10;;;;;;6213739;23;20065;-84
2022/01/19 10:30:06;;;;;;;4.65;2.70;;;5.90;54.90;;;;;;6214475;23;20007;-82
2022/01/19 10:32:36;;;;;;;4.60;2.58;;;6.30;57.10;;;;;;6214939;23;20107;-84
2022/01/19 10:35:21;;;;;;;4.82;2.65;;;6.90;57.20;;;;;;6215434;23;20000;-81
2022/01/19 10:38:08;;;;;;;3.47;2.22;;;7.40;51.10;;;;;;6215525;23;20001;-80
2022/01/19 10:40:35;;;;;;;7.47;2.88;;;7.90;55.60;;;;;;6214966;23;20015;-82
2022/01/19 10:43:27;;;;;;;4.50;2.88;;;8.40;54.60;;;;;;6215306;23;20000;-82
2022/01/19 10:45:54;;;;;;;4.15;2.70;;;9.10;46.80;;;;;;6215409;23;20004;-84
2022/01/19 10:48:32;;;;;;;3.83;2.45;;;9.40;53.00;;;;;;6214922;23;20431;-81
2022/01/19 10:51:15;;;;;;;4.60;2.63;;;9.60;49.00;;;;;;6241664;23;20010;-82
2022/01/19 10:54:05;;;;;;;3.47;2.20;;;9.80;46.00;;;;;;6214280;23;20000;-80
2022/01/19 10:56:31;;;;;;;3.53;1.92;;;10.00;49.80;;;;;;6214004;23;20009;-88
2022/01/19 10:58:59;;;;;;;3.35;2.10;;;10.20;48.80;;;;;;6215882;23;20086;-82
2022/01/19 11:01:36;;;;;;;2.97;2.30;;;10.50;49.20;;;;;;6241714;23;20071;-82
2022/01/19 11:04:31;;;;;;;3.35;2.05;;;10.50;46.40;;;;;;6215151;23;20004;-82
2022/01/19 11:07:05;;;;;;;2.95;2.10;;;10.60;45.60;;;;;;6216275;23;20079;-85
2022/01/19 11:09:43;;;;;;;3.25;2.00;;;10.70;45.20;;;;;;6216523;23;20063;-85
2022/01/19 11:12:13;;;;;;;2.75;1.65;;;10.70;46.20;;;;;;6215049;23;20000;-85
2022/01/19 11:14:48;;;;;;;2.70;1.73;;;10.80;45.30;;;;;;6215777;23;20000;-80
2022/01/19 11:17:13;;;;;;;2.97;1.98;;;10.90;43.00;;;;;;6215458;23;20491;-80
2022/01/19 11:19:43;;;;;;;4.45;2.10;;;10.70;44.30;;;;;;6240941;23;20023;-80
2022/01/19 11:22:53;;;;;;;2.87;1.77;;;10.70;45.00;;;;;;6243031;23;20028;-90
2022/01/19 11:25:37;;;;;;;3.53;2.03;;;10.70;38.60;;;;;;6159746;23;20008;-81
2022/01/19 11:28:09;;;;;;;4.35;2.33;;;10.80;39.90;;;;;;6250140;23;19996;-88
2022/01/19 11:30:35;;;;;;;3.80;2.45;;;11.20;44.40;;;;;;6231280;23;19996;-82
2022/01/19 11:33:47;;;;;;;3.58;2.20;;;11.20;42.50;;;;;;6257267;23;20007;-85
2022/01/19 11:36:24;;;;;;;3.38;2.05;;;10.80;37.40;;;;;;6094337;23;20006;-87
2022/01/19 11:39:09;;;;;;;4.05;2.30;;;10.20;41.70;;;;;;6093933;23;20061;-89
2022/01/19 11:41:55;;;;;;;4.80;2.35;;;9.80;40.70;;;;;;6178858;23;20008;-79
2022/01/19 11:44:40;;;;;;;4.53;2.65;;;9.60;39.40;;;;;;6214068;23;20606;-78
2022/01/19 11:47:21;;;;;;;3.55;2.13;;;9.80;40.00;;;;;;6213320;23;19999;-80
2022/01/19 11:50:03;;;;;;;4.45;2.20;;;10.20;41.30;;;;;;6214586;23;20019;-83
2022/01/19 11:52:53;;;;;;;3.92;2.17;;;10.40;41.50;;;;;;6240303;23;20347;-82
2022/01/19 11:55:23;;;;;;;3.60;2.25;;;10.70;39.50;;;;;;6218751;23;20012;-80
2022/01/19 11:58:12;;;;;;;4.47;2.40;;;10.90;42.60;;;;;;6213899;23;20375;-83
2022/01/19 12:00:39;;;;;;;4.72;2.53;;;11.20;39.30;;;;;;6214798;23;20027;-81
2022/01/19 12:04:15;;;;;;;3.38;2.47;;;11.20;42.30;;;;;;6238014;23;19996;-84
2022/01/19 12:06:42;;;;;;;5.38;2.55;;;11.20;37.50;;;;;;6114366;23;20353;-82
2022/01/19 12:09:12;;;;;;;5.10;2.38;;;11.20;41.00;;;;;;6139924;23;20016;-87
2022/01/19 12:11:48;;;;;;;5.28;2.42;;;11.10;40.90;;;;;;6213172;23;20035;-84
2022/01/19 12:17:08;;;;;;;4.78;3.00;;;11.10;40.60;;;;;;6240464;23;20023;-80
2022/01/19 12:19:42;;;;;;;6.35;3.65;;;11.30;38.60;;;;;;6214938;23;20004;-80
2022/01/19 12:22:29;;;;;;;6.30;3.70;;;11.30;39.60;;;;;;6213685;23;20004;-81
2022/01/19 12:24:59;;;;;;;5.53;3.25;;;11.50;38.20;;;;;;6213362;23;20079;-90
2022/01/19 12:27:37;;;;;;;6.05;2.85;;;11.50;40.80;;;;;;6241432;23;20003;-82
2022/01/19 12:30:14;;;;;;;5.78;3.17;;;11.50;39.20;;;;;;6210253;23;20386;-80
2022/01/19 12:32:45;;;;;;;4.60;2.65;;;11.40;40.40;;;;;;6240574;23;20004;-81
2022/01/19 12:35:33;;;;;;;5.90;2.90;;;11.40;40.20;;;;;;6239963;23;20003;-80
2022/01/19 12:37:59;;;;;;;4.72;2.60;;;11.20;39.40;;;;;;6212794;23;20036;-84
2022/01/19 12:41:00;;;;;;;4.70;2.80;;;11.10;39.70;;;;;;6213054;23;20004;-81
2022/01/19 12:43:28;;;;;;;;;;;11.20;38.50;;;;;;6211322;23;20023;-80
2022/01/19 12:45:55;;;;;;;6.60;3.22;;;10.80;36.80;;;;;;6213531;23;19899;-84
2022/01/19 12:48:47;;;;;;;3.88;2.55;;;10.80;39.80;;;;;;6213746;23;20016;-84
2022/01/19 12:54:41;;;;;;;4.85;2.50;;;10.50;38.90;;;;;;6235960;23;20004;-82
2022/01/19 12:57:15;;;;;;;3.17;2.15;;;10.40;39.80;;;;;;6212466;23;20481;-80
2022/01/19 12:59:43;;;;;;;4.60;2.60;;;10.30;39.50;;;;;;6213118;23;20000;-82
2022/01/19 13:02:13;;;;;;;5.55;2.72;;;10.10;39.30;;;;;;6212749;23;20000;-87
2022/01/19 13:04:45;;;;;;;;;;;10.00;39.10;;;;;;6242070;23;20113;-84
2022/01/19 13:08:02;;;;;;;5.25;2.92;;;9.70;35.30;;;;;;6213308;23;20246;-85
2022/01/19 13:13:10;;;;;;;4.55;2.70;;;9.80;39.30;;;;;;6242787;23;19996;-80
2022/01/19 13:15:47;;;;;;;5.50;3.20;;;9.90;39.40;;;;;;6240902;23;20062;-80
2022/01/19 13:18:17;;;;;;;4.88;2.85;;;9.90;37.70;;;;;;6213537;23;20008;-79
2022/01/19 13:20:54;;;;;;;5.80;3.38;;;9.90;39.10;;;;;;6213127;23;20008;-79
2022/01/19 13:23:20;;;;;;;5.22;3.00;;;9.90;38.00;;;;;;6212658;23;20004;-79
2022/01/19 13:25:55;;;;;;;6.15;3.55;;;9.80;39.30;;;;;;6240170;23;20339;-86
2022/01/19 13:28:35;;;;;;;5.57;3.28;;;9.70;38.70;;;;;;6213290;23;20054;-81
2022/01/19 13:31:19;;;;;;;5.80;3.10;;;9.70;39.50;;;;;;6238667;23;20011;-83
2022/01/19 13:33:59;;;;;;;5.22;2.88;;;9.50;37.30;;;;;;6213015;23;20138;-80
2022/01/19 13:36:35;;;;;;;4.57;3.03;;;9.20;38.20;;;;;;6213067;23;20012;-81
2022/01/19 13:39:04;;;;;;;5.50;2.80;;;9.00;38.70;;;;;;6213314;23;20000;-81
2022/01/19 13:41:29;;;;;;;5.47;2.92;;;8.80;40.10;;;;;;6212868;23;20004;-80
2022/01/19 13:44:05;;;;;;;6.55;3.47;;;8.60;40.10;;;;;;6240747;23;20051;-84
2022/01/19 13:46:32;;;;;;;4.88;2.90;;;8.50;40.30;;;;;;6214254;23;20000;-80
2022/01/19 13:49:01;;;;;;;4.78;2.70;;;8.20;39.90;;;;;;6213436;23;20067;-80
2022/01/19 13:51:29;;;;;;;7.28;3.22;;;8.00;40.20;;;;;;6240961;23;20028;-80
2022/01/19 13:54:00;;;;;;;6.65;3.20;;;7.70;40.60;;;;;;6215483;23;20004;-85
2022/01/19 13:56:43;;;;;;;9.93;4.63;;;7.40;40.80;;;;;;6242694;23;20103;-81
2022/01/19 13:59:18;;;;;;;13.48;6.00;;;7.20;40.90;;;;;;6215474;23;20019;-85
2022/01/19 14:01:56;;;;;;;33.20;14.25;;;7.10;42.00;;;;;;6242634;23;20004;-83
2022/01/19 14:04:23;;;;;;;51.25;22.50;;;6.80;42.70;;;;;;6242507;23;20016;-84
2022/01/19 14:06:50;;;;;;;73.38;30.05;;;6.60;42.90;;;;;;6215642;23;20447;-80
2022/01/19 14:09:20;;;;;;;66.82;29.95;;;6.20;43.40;;;;;;6214516;23;20442;-80
2022/01/19 14:11:58;;;;;;;70.37;30.17;;;6.00;43.90;;;;;;6215061;23;20011;-81
2022/01/19 14:14:32;;;;;;;66.63;28.50;;;5.70;44.20;;;;;;6247119;23;20004;-80
2022/01/19 14:16:57;;;;;;;63.45;28.23;;;5.30;44.70;;;;;;6214756;23;20004;-84
2022/01/19 14:19:27;;;;;;;46.63;22.15;;;4.70;45.30;;;;;;6242112;23;20011;-82
2022/01/19 14:22:08;;;;;;;38.15;17.90;;;4.20;45.80;;;;;;6210947;23;20012;-80
2022/01/19 14:24:47;;;;;;;35.08;16.42;;;3.50;47.10;;;;;;6215843;23;20000;-81
2022/01/19 14:27:31;;;;;;;38.30;18.17;;;2.80;47.80;;;;;;6215442;23;20001;-81
2022/01/19 14:30:02;;;;;;;41.17;20.92;;;2.20;49.60;;;;;;6242202;23;20008;-84
2022/01/19 14:32:47;;;;;;;35.65;17.05;;;1.60;51.00;;;;;;6215794;23;20024;-82
2022/01/19 14:35:22;;;;;;;35.33;16.38;;;1.20;50.80;;;;;;6242114;23;20000;-86
2022/01/19 14:38:09;;;;;;;28.73;12.82;;;0.80;51.20;;;;;;6215378;23;20036;-83
2022/01/19 14:40:49;;;;;;;25.40;12.50;;;0.40;52.40;;;;;;6242137;23;20059;-79
2022/01/19 14:43:17;;;;;;;40.20;18.30;;;0.10;52.30;;;;;;6214769;23;20012;-80
2022/01/19 14:45:54;;;;;;;29.23;13.93;;;-0.20;54.80;;;;;;6214479;23;20000;-81
2022/01/19 14:48:22;;;;;;;33.20;16.08;;;-0.40;55.30;;;;;;6214487;23;20020;-82
2022/01/19 14:50:51;;;;;;;32.15;15.10;;;-0.60;57.30;;;;;;6215478;23;20006;-82
2022/01/19 14:53:17;;;;;;;29.38;14.40;;;-0.80;58.30;;;;;;6215297;23;20011;-81
2022/01/19 14:55:44;;;;;;;28.40;12.68;;;-0.90;58.50;;;;;;6214244;23;20000;-81